Time;durP1;ratioP1;P1;durP2;ratioP2;P2;SDS_P1;SDS_P2;PMS_P1;PMS_P2;Temp;Humidity;BMP_temperature;BMP_pressure;BME280_temperature;BME280_humidity;BME280_pressure;Samples;Min_cycle;Max_cycle;Signal;HPM_P1;HPM_P2
2020/12/06 00:01:43;;;;;;;46.47;24.73;;;;;;;10.36;99.58;97416.31;4965684;28;20035;-59
2020/12/06 00:04:09;;;;;;;49.95;25.27;;;;;;;10.01;99.97;97373.91;4966297;28;20047;-59
2020/12/06 00:06:36;;;;;;;51.00;25.65;;;;;;;10.28;100.00;97419.28;4968150;28;20073;-61
2020/12/06 00:09:04;;;;;;;51.53;26.70;;;;;;;8.03;100.00;97053.41;4966182;28;20161;-59
2020/12/06 00:11:30;;;;;;;57.65;27.02;;;;;;;10.04;99.74;97381.50;4965678;28;20089;-59
2020/12/06 00:13:55;;;;;;;51.13;24.80;;;;;;;10.16;99.12;97380.63;4967698;28;20257;-60
2020/12/06 00:16:21;;;;;;;46.95;25.85;;;;;;;9.97;99.65;97370.28;4965752;28;20443;-59
2020/12/06 00:18:48;;;;;;;53.00;26.60;;;;;;;10.31;100.00;97419.38;4967155;28;20059;-59
2020/12/06 00:21:17;;;;;;;46.53;24.33;;;;;;;9.97;99.94;97350.91;4967293;28;20121;-59
2020/12/06 00:23:43;;;;;;;51.42;27.55;;;;;;;10.13;99.36;97379.38;4967310;28;20146;-61
2020/12/06 00:26:09;;;;;;;49.05;24.65;;;;;;;10.35;99.43;97402.84;4965584;28;20027;-60
2020/12/06 00:28:35;;;;;;;45.78;25.08;;;;;;;10.45;99.54;97425.22;4965753;28;20050;-59
2020/12/06 00:31:00;;;;;;;48.88;26.13;;;;;;;10.25;100.00;97422.75;4965450;28;20035;-59
2020/12/06 00:33:26;;;;;;;59.80;27.05;;;;;;;10.13;100.00;97423.66;4967400;28;20592;-61
2020/12/06 00:35:52;;;;;;;52.33;28.05;;;;;;;9.00;100.00;97287.19;4966929;28;20027;-59
2020/12/06 00:38:18;;;;;;;51.03;27.23;;;;;;;9.59;100.00;97363.75;4967076;28;20070;-60
2020/12/06 00:40:43;;;;;;;53.65;26.90;;;;;;;9.93;100.00;97419.19;4965751;28;20449;-60
2020/12/06 00:43:09;;;;;;;49.28;26.10;;;;;;;10.03;100.00;97413.13;4967371;28;20129;-59
2020/12/06 00:45:34;;;;;;;51.20;26.60;;;;;;;10.02;100.00;97400.41;4965607;28;20069;-59
2020/12/06 00:48:00;;;;;;;51.72;25.85;;;;;;;10.17;100.00;97419.03;4966980;28;20114;-61
2020/12/06 00:50:25;;;;;;;58.67;27.33;;;;;;;10.14;100.00;97416.16;4965243;28;20109;-59
2020/12/06 00:52:51;;;;;;;58.13;28.27;;;;;;;10.06;100.00;97417.94;4965464;28;20047;-60
2020/12/06 00:55:16;;;;;;;48.40;25.15;;;;;;;8.32;100.00;97138.56;4965421;28;20065;-59
2020/12/06 00:57:41;;;;;;;51.05;24.67;;;;;;;9.92;100.00;97376.06;4965320;28;20058;-59
2020/12/06 01:00:08;;;;;;;57.28;25.20;;;;;;;9.65;100.00;97357.59;4964974;28;20038;-59
2020/12/06 01:02:34;;;;;;;45.83;22.98;;;;;;;10.09;100.00;97417.25;4965277;28;20030;-59
2020/12/06 01:04:59;;;;;;;48.50;23.88;;;;;;;9.97;100.00;97409.00;4966988;28;20109;-59
2020/12/06 01:07:25;;;;;;;47.72;24.08;;;;;;;9.94;100.00;97404.16;4964862;28;20038;-60
2020/12/06 01:09:50;;;;;;;44.30;23.00;;;;;;;9.99;100.00;97406.66;4965298;28;20073;-59
2020/12/06 01:12:16;;;;;;;57.13;24.58;;;;;;;9.79;100.00;97388.38;4964508;28;20415;-59
2020/12/06 01:14:42;;;;;;;51.75;25.85;;;;;;;9.85;100.00;97411.84;4965089;28;20472;-59
2020/12/06 01:17:07;;;;;;;53.60;25.25;;;;;;;9.59;100.00;97359.03;4966283;28;20058;-58
2020/12/06 01:19:32;;;;;;;42.83;22.75;;;;;;;9.96;100.00;97404.63;4964606;28;20046;-60
2020/12/06 01:21:58;;;;;;;56.10;26.70;;;;;;;10.02;100.00;97399.63;4966213;28;20035;-59
2020/12/06 01:24:23;;;;;;;76.65;36.85;;;;;;;9.75;100.00;97384.75;4964403;28;20045;-59
2020/12/06 01:26:49;;;;;;;60.13;29.08;;;;;;;9.78;100.00;97389.56;4966536;28;20536;-59
2020/12/06 01:29:15;;;;;;;53.42;23.65;;;;;;;9.60;100.00;97399.34;4964724;28;20047;-58
2020/12/06 01:31:46;;;;;;;60.10;28.25;;;;;;;9.53;100.00;97379.78;4966020;28;20096;-58
2020/12/06 01:34:11;;;;;;;38.42;21.13;;;;;;;9.57;100.00;97399.25;4966490;28;21252;-59
2020/12/06 01:36:37;;;;;;;52.80;25.17;;;;;;;9.76;100.00;97396.59;4964322;28;20031;-60
2020/12/06 01:39:02;;;;;;;47.88;24.48;;;;;;;9.45;100.00;97368.91;4964519;28;20053;-59
2020/12/06 01:41:28;;;;;;;53.20;25.70;;;;;;;9.68;100.00;97392.84;4964433;28;20027;-60
2020/12/06 01:43:55;;;;;;;58.33;25.80;;;;;;;9.57;100.00;97389.00;4964329;28;20049;-59
2020/12/06 01:46:25;;;;;;;57.53;27.42;;;;;;;9.70;100.00;97387.75;4965830;28;20102;-59
2020/12/06 01:48:54;;;;;;;56.17;26.65;;;;;;;9.83;100.00;97397.56;4966123;28;20054;-61
2020/12/06 01:51:20;;;;;;;53.30;24.80;;;;;;;9.83;100.00;97380.97;4965704;28;20030;-59
2020/12/06 01:53:50;;;;;;;65.35;24.65;;;;;;;9.76;100.00;97366.97;4964629;28;20031;-59
2020/12/06 01:56:17;;;;;;;47.50;23.95;;;;;;;9.83;100.00;97380.97;4964470;28;20031;-61
2020/12/06 01:58:43;;;;;;;52.20;24.45;;;;;;;9.49;100.00;97342.97;4965275;28;20030;-59
2020/12/06 02:01:09;;;;;;;51.25;24.63;;;;;;;9.69;100.00;97399.97;4965170;28;20576;-60
2020/12/06 02:03:35;;;;;;;73.03;35.95;;;;;;;9.82;100.00;97390.44;4968311;28;20568;-60
2020/12/06 02:06:01;;;;;;;59.88;26.98;;;;;;;9.13;100.00;97279.63;4969929;28;20512;-60
2020/12/06 02:08:27;;;;;;;110.45;43.83;;;;;;;9.77;100.00;97393.47;4968458;28;20517;-60
2020/12/06 02:10:53;;;;;;;96.53;39.78;;;;;;;9.88;100.00;97389.00;4968621;28;20125;-60
2020/12/06 02:13:23;;;;;;;62.47;28.23;;;;;;;9.87;100.00;97392.13;4968177;28;20093;-60
2020/12/06 02:15:49;;;;;;;48.15;21.60;;;;;;;9.37;100.00;97345.81;4969592;28;20074;-61
2020/12/06 02:18:16;;;;;;;62.63;27.27;;;;;;;9.75;100.00;97384.75;4968277;28;20062;-59
2020/12/06 02:20:42;;;;;;;51.88;24.45;;;;;;;9.80;100.00;97389.97;4967844;28;20082;-59
2020/12/06 02:23:07;;;;;;;83.05;37.63;;;;;;;9.77;100.00;97404.53;4969880;28;20102;-61
2020/12/06 02:25:37;;;;;;;57.83;26.08;;;;;;;9.61;100.00;97367.75;4968153;28;20546;-60
2020/12/06 02:28:07;;;;;;;49.90;23.92;;;;;;;9.82;100.00;97390.44;4969669;28;20466;-61
2020/12/06 02:30:33;;;;;;;80.90;32.90;;;;;;;9.51;100.00;97351.72;4967970;28;20034;-60
2020/12/06 02:33:03;;;;;;;75.03;35.15;;;;;;;9.79;100.00;97393.91;4967965;28;20046;-60
2020/12/06 02:35:29;;;;;;;52.47;26.17;;;;;;;9.19;100.00;97303.06;4969471;28;20031;-60
2020/12/06 02:37:54;;;;;;;52.80;23.98;;;;;;;9.60;100.00;97388.28;4967643;28;20031;-60
2020/12/06 02:40:20;;;;;;;52.58;23.30;;;;;;;9.66;100.00;97381.31;4967805;28;20163;-60
2020/12/06 02:42:45;;;;;;;53.53;24.38;;;;;;;9.68;100.00;97378.19;4969164;28;20026;-59
2020/12/06 02:45:11;;;;;;;45.38;21.88;;;;;;;9.85;100.00;97384.19;4967849;28;20069;-60
2020/12/06 02:47:36;;;;;;;46.88;22.70;;;;;;;9.54;100.00;97384.19;4968608;28;20054;-59
2020/12/06 02:50:04;;;;;;;52.85;29.20;;;;;;;9.61;100.00;97389.09;4968955;28;20061;-59
2020/12/06 02:52:29;;;;;;;49.45;25.95;;;;;;;9.10;100.00;97313.50;4967417;28;20533;-59
2020/12/06 02:54:55;;;;;;;57.67;30.15;;;;;;;9.61;100.00;97384.34;4967535;28;20482;-60
2020/12/06 02:57:20;;;;;;;52.75;24.75;;;;;;;9.60;100.00;97382.75;4968732;28;20488;-59
2020/12/06 02:59:46;;;;;;;59.80;27.00;;;;;;;9.65;100.00;97389.97;4967637;28;20058;-59
2020/12/06 03:02:11;;;;;;;45.97;22.95;;;;;;;9.59;100.00;97394.97;4967265;28;20487;-61
2020/12/06 03:04:37;;;;;;;45.58;24.85;;;;;;;9.61;100.00;97389.88;4968544;28;20122;-59
2020/12/06 03:07:02;;;;;;;48.50;22.50;;;;;;;9.59;100.00;97399.69;4968602;28;20089;-60
2020/12/06 03:09:28;;;;;;;50.08;23.50;;;;;;;9.51;100.00;97407.00;4967340;28;20039;-60
2020/12/06 03:11:53;;;;;;;64.05;27.67;;;;;;;9.53;100.00;97385.31;4967186;28;20037;-59
2020/12/06 03:14:18;;;;;;;42.85;23.05;;;;;;;9.54;100.00;97395.25;4968944;28;20120;-59
2020/12/06 03:16:44;;;;;;;47.63;23.95;;;;;;;9.47;100.00;97372.91;4967135;28;20483;-59
2020/12/06 03:19:10;;;;;;;48.75;24.83;;;;;;;9.23;100.00;97339.09;4966674;28;20138;-59
2020/12/06 03:21:35;;;;;;;47.70;23.35;;;;;;;9.30;100.00;97345.63;4966417;28;20077;-60
2020/12/06 03:24:01;;;;;;;44.47;22.05;;;;;;;9.66;100.00;97395.16;4968595;28;20075;-59
2020/12/06 03:26:26;;;;;;;43.55;22.45;;;;;;;8.95;100.00;97300.44;4968269;28;20031;-60
2020/12/06 03:28:52;;;;;;;54.42;24.70;;;;;;;9.55;100.00;97377.47;4968677;28;20039;-62
2020/12/06 03:31:17;;;;;;;43.85;22.08;;;;;;;9.33;100.00;97333.03;4968066;28;20037;-59
2020/12/06 03:33:43;;;;;;;46.75;23.80;;;;;;;9.35;100.00;97353.66;4968229;28;20034;-61
2020/12/06 03:36:08;;;;;;;52.58;26.63;;;;;;;9.39;100.00;97348.22;4966617;28;20058;-59
2020/12/06 03:38:34;;;;;;;46.10;24.33;;;;;;;9.25;100.00;97321.00;4968475;28;20470;-60
2020/12/06 03:40:59;;;;;;;49.53;25.42;;;;;;;9.80;100.00;97392.75;4968285;28;20728;-61
2020/12/06 03:43:25;;;;;;;52.95;24.30;;;;;;;9.23;100.00;97323.31;4966925;28;20034;-59
2020/12/06 03:45:50;;;;;;;53.13;25.17;;;;;;;9.31;100.00;97330.63;4966502;28;20042;-59
2020/12/06 03:48:15;;;;;;;51.33;24.77;;;;;;;9.72;100.00;97379.09;4966502;28;20053;-60
2020/12/06 03:50:41;;;;;;;52.63;27.10;;;;;;;9.79;100.00;97385.63;4966320;28;20499;-59
2020/12/06 03:53:06;;;;;;;55.53;26.13;;;;;;;9.55;100.00;97355.34;4966296;28;20109;-59
2020/12/06 03:55:32;;;;;;;54.65;29.40;;;;;;;9.86;100.00;97374.75;4967958;28;20031;-60
2020/12/06 03:57:57;;;;;;;63.20;29.25;;;;;;;9.65;100.00;97373.38;4966535;28;20038;-60
2020/12/06 04:00:23;;;;;;;51.95;24.70;;;;;;;9.62;100.00;97365.78;4967604;28;20030;-60
2020/12/06 04:02:52;;;;;;;55.92;27.63;;;;;;;9.68;100.00;97376.25;4967804;28;20089;-61
2020/12/06 04:05:20;;;;;;;52.13;26.10;;;;;;;9.83;100.00;97380.97;4966019;28;20078;-59
2020/12/06 04:07:50;;;;;;;54.30;28.98;;;;;;;9.63;100.00;97348.84;4967663;28;20027;-60
2020/12/06 04:10:17;;;;;;;60.22;31.08;;;;;;;9.82;100.00;97384.09;4965847;28;20034;-58
2020/12/06 04:12:42;;;;;;;53.17;29.25;;;;;;;7.00;100.00;96950.50;4965989;28;20037;-61
2020/12/06 04:15:08;;;;;;;71.43;41.25;;;;;;;9.20;100.00;97277.03;4967698;28;20035;-59
2020/12/06 04:17:33;;;;;;;55.30;30.08;;;;;;;9.77;100.00;97390.69;4967927;28;20031;-60
2020/12/06 04:19:59;;;;;;;54.65;28.45;;;;;;;9.76;100.00;97397.41;4965459;28;20537;-60
2020/12/06 04:22:24;;;;;;;62.03;36.63;;;;;;;9.82;100.00;97390.44;4967023;28;20502;-58
2020/12/06 04:24:50;;;;;;;61.30;33.70;;;;;;;9.74;100.00;97387.84;4967045;28;20035;-60
2020/12/06 04:27:15;;;;;;;52.13;28.75;;;;;;;9.90;100.00;97397.75;4965599;28;20039;-59
2020/12/06 04:29:41;;;;;;;54.28;26.98;;;;;;;8.84;100.00;97247.69;4967385;28;20108;-59
2020/12/06 04:32:06;;;;;;;60.42;27.80;;;;;;;9.30;100.00;97362.19;4967031;28;20051;-59
2020/12/06 04:34:36;;;;;;;52.10;26.45;;;;;;;7.83;100.00;97065.44;4967554;28;20042;-59
2020/12/06 04:37:03;;;;;;;53.83;27.00;;;;;;;9.84;100.00;97410.25;4965432;28;20070;-59
2020/12/06 04:39:28;;;;;;;50.58;26.25;;;;;;;9.75;100.00;97414.34;4967183;28;20122;-59
2020/12/06 04:41:54;;;;;;;53.22;25.65;;;;;;;9.71;100.00;97400.44;4966994;28;20049;-59
2020/12/06 04:44:20;;;;;;;58.33;26.38;;;;;;;8.63;100.00;97219.47;4967100;28;20038;-59
2020/12/06 04:46:45;;;;;;;57.00;25.83;;;;;;;9.47;100.00;97355.53;4965374;28;20084;-60
2020/12/06 04:49:42;;;;;;;50.03;25.17;;;;;;;9.18;100.00;97309.75;4967068;28;20043;-58
2020/12/06 04:52:13;;;;;;;56.90;24.25;;;;;;;8.88;100.00;97256.06;4965076;28;20034;-59
2020/12/06 04:54:41;;;;;;;55.38;26.67;;;;;;;9.81;100.00;97410.97;4966954;28;20058;-59
2020/12/06 04:57:08;;;;;;;54.72;25.15;;;;;;;9.81;100.00;97399.91;4965022;28;20054;-58
2020/12/06 04:59:40;;;;;;;53.67;25.75;;;;;;;9.97;100.00;97414.53;4967138;28;20045;-59
2020/12/06 05:02:09;;;;;;;55.53;24.50;;;;;;;9.88;100.00;97416.66;4965004;28;20425;-60
2020/12/06 05:04:40;;;;;;;50.17;25.48;;;;;;;9.15;100.00;97327.84;4967075;28;20039;-59
2020/12/06 05:07:06;;;;;;;52.03;24.83;;;;;;;9.82;100.00;97423.63;4966869;28;20035;-60
2020/12/06 05:09:35;;;;;;;47.55;25.20;;;;;;;9.77;100.00;97420.34;4967136;28;20426;-59
2020/12/06 05:12:01;;;;;;;51.10;25.48;;;;;;;9.02;100.00;97284.88;4964816;28;20174;-60
2020/12/06 05:14:27;;;;;;;47.13;25.40;;;;;;;9.40;100.00;97350.63;4967221;28;20066;-59
2020/12/06 05:16:55;;;;;;;48.75;24.58;;;;;;;9.31;100.00;97341.69;4964820;28;20608;-60
2020/12/06 05:19:24;;;;;;;51.95;25.77;;;;;;;9.73;100.00;97425.78;4964457;28;20047;-59
2020/12/06 05:21:49;;;;;;;58.33;25.63;;;;;;;9.36;100.00;97391.19;4965955;28;20422;-59
2020/12/06 05:24:14;;;;;;;59.03;27.02;;;;;;;9.49;100.00;97408.50;4966641;28;20035;-59
2020/12/06 05:26:40;;;;;;;52.38;25.63;;;;;;;8.97;100.00;97348.66;4964786;28;20030;-58
2020/12/06 05:29:05;;;;;;;53.25;26.88;;;;;;;9.54;100.00;97433.13;4964925;28;20049;-59
2020/12/06 05:31:31;;;;;;;55.38;27.00;;;;;;;9.48;100.00;97424.31;4965935;28;20535;-59
2020/12/06 05:33:56;;;;;;;70.85;26.40;;;;;;;9.48;100.00;97429.84;4964688;28;20528;-58
2020/12/06 05:36:22;;;;;;;58.80;27.63;;;;;;;9.32;100.00;97440.06;4965141;28;20034;-59
2020/12/06 05:38:48;;;;;;;61.10;27.25;;;;;;;7.72;100.00;97176.25;4964432;28;20097;-59
2020/12/06 05:41:14;;;;;;;50.00;25.88;;;;;;;8.84;100.00;97365.63;4965854;28;20033;-59
2020/12/06 05:43:40;;;;;;;52.33;27.10;;;;;;;9.37;100.00;97434.28;4965771;28;20035;-58
2020/12/06 05:46:05;;;;;;;57.22;25.50;;;;;;;9.35;100.00;97447.66;4966009;28;20035;-59
2020/12/06 05:48:32;;;;;;;56.92;30.73;;;;;;;9.49;100.00;97448.03;4965936;28;20038;-59
2020/12/06 05:50:58;;;;;;;70.57;27.77;;;;;;;9.47;100.00;97444.81;4964085;28;20153;-58
2020/12/06 05:53:26;;;;;;;58.80;28.27;;;;;;;9.49;100.00;97448.03;4966062;28;20097;-59
2020/12/06 05:55:56;;;;;;;62.80;30.08;;;;;;;9.13;100.00;97417.78;4965738;28;20027;-60
2020/12/06 05:58:23;;;;;;;67.93;27.52;;;;;;;9.09;100.00;97383.72;4964068;28;20446;-59
2020/12/06 06:00:50;;;;;;;56.97;27.95;;;;;;;9.31;100.00;97452.25;4965617;28;20121;-59
2020/12/06 06:03:28;;;;;;;54.80;29.95;;;;;;;9.16;100.00;97447.50;4964278;28;20086;-61
2020/12/06 06:05:55;;;;;;;58.40;25.90;;;;;;;9.31;100.00;97449.47;4964383;28;20049;-59
2020/12/06 06:08:25;;;;;;;64.43;29.55;;;;;;;9.28;100.00;97457.69;4964049;28;20584;-59
2020/12/06 06:11:17;;;;;;;54.80;30.85;;;;;;;9.36;100.00;97454.75;4964002;28;20035;-59
2020/12/06 06:13:50;;;;;;;93.40;47.20;;;;;;;8.61;100.00;97359.06;4967769;28;20548;-59
2020/12/06 06:16:18;;;;;;;64.65;28.10;;;;;;;8.69;100.00;97397.56;4963965;28;20043;-59
2020/12/06 06:18:45;;;;;;;62.42;28.90;;;;;;;8.99;100.00;97437.50;4965790;28;20053;-61
2020/12/06 06:21:11;;;;;;;60.47;28.05;;;;;;;9.10;100.00;97451.66;4965283;28;20047;-60
2020/12/06 06:23:37;;;;;;;60.65;28.48;;;;;;;8.80;100.00;97392.38;4964202;28;20154;-61
2020/12/06 06:26:04;;;;;;;61.67;30.13;;;;;;;9.25;100.00;97461.97;4963743;28;20034;-59
2020/12/06 06:28:30;;;;;;;66.25;29.40;;;;;;;8.79;100.00;97390.72;4965567;28;20562;-61
2020/12/06 06:30:55;;;;;;;68.78;34.63;;;;;;;8.69;100.00;97383.75;4965644;28;20130;-60
2020/12/06 06:33:22;;;;;;;62.05;29.10;;;;;;;9.03;100.00;97456.97;4965694;28;20125;-59
2020/12/06 06:35:48;;;;;;;67.60;31.05;;;;;;;8.75;100.00;97434.03;4964083;28;20550;-59
2020/12/06 06:38:14;;;;;;;58.42;28.80;;;;;;;9.10;100.00;97463.50;4963896;28;20126;-59
2020/12/06 06:40:40;;;;;;;69.35;29.25;;;;;;;9.08;100.00;97482.41;4964066;28;20092;-59
2020/12/06 06:43:06;;;;;;;86.47;41.67;;;;;;;8.81;100.00;97407.78;4963785;28;20133;-60
2020/12/06 06:45:43;;;;;;;62.03;28.55;;;;;;;9.19;100.00;97466.13;4963762;28;20039;-60
2020/12/06 06:48:21;;;;;;;60.45;28.25;;;;;;;9.26;100.00;97471.88;4968129;28;20082;-59
2020/12/06 06:50:50;;;;;;;62.42;28.38;;;;;;;9.13;100.00;97454.53;4968971;28;20548;-60
2020/12/06 06:53:16;;;;;;;72.45;35.40;;;;;;;9.29;100.00;97467.59;4968882;28;20050;-60
2020/12/06 06:55:52;;;;;;;65.50;34.08;;;;;;;9.31;100.00;97463.31;4966994;28;20498;-60
2020/12/06 06:58:27;;;;;;;55.83;27.98;;;;;;;8.67;100.00;97371.44;4968672;28;20517;-59
2020/12/06 07:01:17;;;;;;;64.72;33.85;;;;;;;9.36;100.00;97514.81;4968726;28;20081;-59
2020/12/06 07:03:50;;;;;;;77.15;38.70;;;;;;;8.87;100.00;97431.22;4967116;28;20058;-59
2020/12/06 07:06:47;;;;;;;80.40;40.78;;;;;;;9.28;100.00;97469.53;4967608;28;20070;-58
2020/12/06 07:09:25;;;;;;;66.20;31.35;;;;;;;9.33;100.00;97477.59;4968995;28;20095;-60
2020/12/06 07:11:54;;;;;;;67.75;34.22;;;;;;;8.69;100.00;97391.25;4967143;28;20494;-59
2020/12/06 07:14:23;;;;;;;70.22;35.78;;;;;;;8.84;100.00;97396.03;4968735;28;20458;-58
2020/12/06 07:16:50;;;;;;;75.65;38.97;;;;;;;9.01;100.00;97409.53;4968339;28;20039;-60
2020/12/06 07:19:15;;;;;;;80.22;40.10;;;;;;;9.17;100.00;97441.59;4967082;28;20050;-61
2020/12/06 07:21:41;;;;;;;53.22;29.20;;;;;;;9.63;100.00;97480.78;4968319;28;20109;-58
2020/12/06 07:24:07;;;;;;;54.55;28.33;;;;;;;9.67;100.00;97471.47;4966980;28;20049;-60
2020/12/06 07:26:32;;;;;;;61.00;31.00;;;;;;;9.54;100.00;97480.16;4966477;28;20037;-59
2020/12/06 07:28:58;;;;;;;65.60;35.00;;;;;;;9.52;100.00;97474.97;4968368;28;20105;-59
2020/12/06 07:31:25;;;;;;;54.00;29.25;;;;;;;9.51;100.00;97454.03;4967973;28;20062;-59
2020/12/06 07:33:51;;;;;;;54.95;27.08;;;;;;;8.98;100.00;97393.66;4967043;28;20498;-59
2020/12/06 07:36:17;;;;;;;53.28;27.85;;;;;;;9.55;100.00;97490.06;4966546;28;20605;-58
2020/12/06 07:38:43;;;;;;;57.97;30.45;;;;;;;8.89;100.00;97393.00;4967996;28;20043;-58
2020/12/06 07:41:08;;;;;;;50.08;27.25;;;;;;;8.12;100.00;97266.47;4966532;28;20551;-58
2020/12/06 07:43:34;;;;;;;55.45;28.45;;;;;;;9.40;100.00;97491.63;4966811;28;20047;-59
2020/12/06 07:46:13;;;;;;;49.17;27.30;;;;;;;9.45;100.00;97485.84;4966352;28;20062;-58
2020/12/06 07:48:38;;;;;;;100.57;45.67;;;;;;;9.10;100.00;97444.16;4967891;28;20041;-58
2020/12/06 07:51:04;;;;;;;71.78;35.58;;;;;;;9.46;100.00;97494.94;4968127;28;20109;-58
2020/12/06 07:53:42;;;;;;;47.60;27.13;;;;;;;9.32;100.00;97464.13;4967963;28;20090;-59
2020/12/06 07:56:08;;;;;;;55.38;29.95;;;;;;;9.46;100.00;97476.38;4966363;28;20402;-59
2020/12/06 07:58:38;;;;;;;52.70;28.95;;;;;;;9.42;100.00;97475.47;4967025;28;20130;-59
2020/12/06 08:01:04;;;;;;;52.92;28.73;;;;;;;9.45;100.00;97479.50;4965908;28;20387;-59
2020/12/06 08:03:30;;;;;;;56.08;27.40;;;;;;;9.15;100.00;97481.81;4967811;28;20101;-60
2020/12/06 08:05:59;;;;;;;49.17;25.00;;;;;;;9.11;100.00;97483.66;4966099;28;20090;-59
2020/12/06 08:08:26;;;;;;;51.40;26.25;;;;;;;9.17;100.00;97479.50;4966273;28;20039;-59
2020/12/06 08:10:57;;;;;;;55.28;31.23;;;;;;;9.00;100.00;97452.16;4966077;28;20041;-61
2020/12/06 08:13:23;;;;;;;53.72;29.52;;;;;;;9.40;100.00;97477.00;4967073;28;20034;-59
2020/12/06 08:15:48;;;;;;;55.67;29.77;;;;;;;9.44;100.00;97478.69;4965858;28;20469;-59
2020/12/06 08:18:15;;;;;;;44.33;27.48;;;;;;;9.15;100.00;97434.84;4965898;28;20066;-61
2020/12/06 08:20:52;;;;;;;51.17;28.33;;;;;;;9.29;100.00;97449.06;4967013;28;20055;-62
2020/12/06 08:23:29;;;;;;;40.40;22.58;;;;;;;9.25;100.00;97456.44;4965808;28;20138;-59
2020/12/06 08:25:54;;;;;;;47.05;26.63;;;;;;;9.38;100.00;97485.63;4967367;28;20034;-60
2020/12/06 08:28:20;;;;;;;56.47;31.17;;;;;;;9.51;100.00;97462.31;4965468;28;20043;-59
2020/12/06 08:30:46;;;;;;;41.25;23.85;;;;;;;9.71;100.00;97477.88;4966860;28;20440;-60
2020/12/06 08:33:11;;;;;;;42.83;23.13;;;;;;;9.52;100.00;97474.97;4965495;28;20473;-59
2020/12/06 08:35:48;;;;;;;48.90;28.40;;;;;;;9.46;100.00;97473.63;4965673;28;20984;-60
2020/12/06 08:38:14;;;;;;;49.78;29.83;;;;;;;9.60;100.00;97474.00;4967022;28;20422;-60
2020/12/06 08:40:40;;;;;;;54.65;28.55;;;;;;;9.14;100.00;97408.34;4966833;28;20034;-61
2020/12/06 08:43:05;;;;;;;52.58;27.45;;;;;;;9.23;100.00;97373.06;4967113;28;20039;-60
2020/12/06 08:45:30;;;;;;;51.00;27.60;;;;;;;9.88;100.00;97460.94;4966990;28;20058;-59
2020/12/06 08:47:56;;;;;;;50.30;26.73;;;;;;;9.51;100.00;97412.53;4966925;28;20042;-61
2020/12/06 08:50:21;;;;;;;62.55;30.52;;;;;;;9.72;100.00;97457.34;4966890;28;20561;-59
2020/12/06 08:52:56;;;;;;;52.22;28.70;;;;;;;9.86;100.00;97446.69;4967044;28;20096;-60
2020/12/06 08:55:30;;;;;;;70.05;36.03;;;;;;;10.01;100.00;97448.63;4965322;28;20494;-60
2020/12/06 08:57:57;;;;;;;65.30;34.03;;;;;;;9.75;100.00;97401.34;4965127;28;20105;-61
2020/12/06 09:00:22;;;;;;;43.92;23.23;;;;;;;9.61;100.00;97423.06;4965227;28;20034;-61
2020/12/06 09:02:48;;;;;;;39.22;21.25;;;;;;;9.87;100.00;97448.28;4965310;28;20068;-61
2020/12/06 09:05:14;;;;;;;39.80;20.58;;;;;;;9.78;100.00;97439.34;4965053;28;20093;-61
2020/12/06 09:07:40;;;;;;;38.28;23.27;;;;;;;9.05;100.00;97338.63;4966359;28;20510;-61
2020/12/06 09:10:06;;;;;;;45.13;24.20;;;;;;;9.27;100.00;97357.38;4964896;28;20198;-61
2020/12/06 09:12:33;;;;;;;47.10;25.67;;;;;;;9.68;100.00;97392.84;4966235;28;20560;-62
2020/12/06 09:14:59;;;;;;;47.08;26.85;;;;;;;9.49;100.00;97359.53;4964866;28;20030;-61
2020/12/06 09:17:25;;;;;;;97.85;54.95;;;;;;;9.91;100.00;97429.78;4964490;28;20030;-61
2020/12/06 09:19:50;;;;;;;34.15;20.42;;;;;;;9.05;100.00;97377.28;4965944;28;20090;-60
2020/12/06 09:22:16;;;;;;;41.67;20.40;;;;;;;9.21;100.00;97431.44;4966378;28;20114;-60
2020/12/06 09:24:41;;;;;;;40.13;23.27;;;;;;;9.53;100.00;97426.78;4964718;28;20043;-59
2020/12/06 09:27:07;;;;;;;37.53;22.40;;;;;;;9.66;100.00;97419.25;4966360;28;20673;-60
2020/12/06 09:29:32;;;;;;;41.05;20.50;;;;;;;9.47;100.00;97399.78;4966493;28;20037;-61
2020/12/06 09:31:57;;;;;;;52.13;24.40;;;;;;;9.43;100.00;97418.22;4965934;28;20458;-60
2020/12/06 09:34:23;;;;;;;80.20;36.58;;;;;;;9.52;100.00;97422.44;4964554;28;20125;-60
2020/12/06 09:36:48;;;;;;;36.65;18.55;;;;;;;9.20;100.00;97417.97;4966309;28;20425;-60
2020/12/06 09:39:14;;;;;;;41.13;20.52;;;;;;;5.72;100.00;96904.81;4966137;28;20037;-61
2020/12/06 09:41:45;;;;;;;40.22;20.73;;;;;;;9.09;100.00;97408.59;4965920;28;20056;-61
2020/12/06 09:44:10;;;;;;;72.75;35.65;;;;;;;9.27;100.00;97401.59;4965632;28;20070;-61
2020/12/06 09:46:35;;;;;;;35.42;21.05;;;;;;;9.51;100.00;97395.13;4964601;28;20556;-61
2020/12/06 09:49:02;;;;;;;31.08;18.20;;;;;;;9.55;100.00;97402.38;4965658;28;20038;-61
2020/12/06 09:51:27;;;;;;;44.03;24.70;;;;;;;9.57;100.00;97416.66;4965793;28;20038;-62
2020/12/06 09:53:52;;;;;;;32.90;19.50;;;;;;;8.85;100.00;97290.69;4964356;28;20056;-61
2020/12/06 09:56:18;;;;;;;57.08;30.55;;;;;;;9.58;100.00;97385.06;4965715;28;20035;-61
2020/12/06 09:58:43;;;;;;;36.97;21.58;;;;;;;9.79;100.00;97396.69;4964159;28;20085;-61
2020/12/06 10:01:09;;;;;;;37.63;19.15;;;;;;;9.69;100.00;97386.13;4964114;28;20043;-60
2020/12/06 10:03:34;;;;;;;37.95;20.13;;;;;;;9.71;100.00;97389.34;4963898;28;20568;-60
2020/12/06 10:06:00;;;;;;;40.60;22.90;;;;;;;9.68;100.00;97381.78;4964133;28;20031;-60
2020/12/06 10:08:25;;;;;;;34.90;19.70;;;;;;;9.62;100.00;97352.78;4965852;28;20672;-62
2020/12/06 10:10:51;;;;;;;32.80;19.40;;;;;;;9.33;100.00;97300.66;4964039;28;20704;-60
2020/12/06 10:13:16;;;;;;;42.08;21.88;;;;;;;9.96;100.00;97379.72;4966055;28;20067;-60
2020/12/06 10:15:42;;;;;;;34.83;20.27;;;;;;;9.21;100.00;97275.88;4966132;28;20089;-60
2020/12/06 10:18:09;;;;;;;48.30;24.50;;;;;;;8.83;100.00;97297.75;4963951;28;20070;-60
2020/12/06 10:20:34;;;;;;;47.22;24.63;;;;;;;9.18;100.00;97376.09;4965748;28;20142;-60
2020/12/06 10:23:00;;;;;;;52.17;25.27;;;;;;;9.33;100.00;97378.06;4967921;28;20121;-60
2020/12/06 10:25:25;;;;;;;55.58;26.40;;;;;;;9.42;100.00;97337.22;4969331;28;20042;-60
2020/12/06 10:27:51;;;;;;;45.95;23.63;;;;;;;9.28;100.00;97364.50;4967712;28;20039;-60
2020/12/06 10:30:16;;;;;;;52.97;25.63;;;;;;;9.30;100.00;97317.97;4969430;28;20478;-63
2020/12/06 10:32:43;;;;;;;46.28;23.20;;;;;;;9.63;100.00;97348.84;4967772;28;20569;-60
2020/12/06 10:35:08;;;;;;;44.30;23.10;;;;;;;9.66;100.00;97342.59;4967955;28;20510;-63
2020/12/06 10:37:34;;;;;;;46.05;23.80;;;;;;;9.78;100.00;97358.31;4967673;28;20065;-61
2020/12/06 10:39:59;;;;;;;47.80;23.23;;;;;;;8.99;100.00;97263.44;4967605;28;20662;-60
2020/12/06 10:42:25;;;;;;;47.03;24.02;;;;;;;9.49;100.00;97354.03;4967478;28;20114;-62
2020/12/06 10:44:50;;;;;;;44.10;21.80;;;;;;;9.68;100.00;97356.88;4967790;28;20166;-61
2020/12/06 10:47:18;;;;;;;45.38;23.38;;;;;;;9.57;100.00;97364.09;4969315;28;20031;-60
2020/12/06 10:49:45;;;;;;;44.58;22.30;;;;;;;9.86;100.00;97357.31;4967689;28;20422;-61
2020/12/06 10:52:12;;;;;;;44.67;22.55;;;;;;;8.66;100.00;97231.78;4967237;28;20166;-60
2020/12/06 10:54:37;;;;;;;45.08;22.75;;;;;;;8.52;100.00;97254.28;4967473;28;20073;-60
2020/12/06 10:57:03;;;;;;;50.08;24.17;;;;;;;9.18;100.00;97331.88;4967382;28;20474;-60
2020/12/06 10:59:29;;;;;;;47.53;24.30;;;;;;;9.60;100.00;97346.78;4967611;28;20042;-60
2020/12/06 11:01:56;;;;;;;51.17;25.95;;;;;;;9.30;100.00;97311.63;4968745;28;20041;-60
2020/12/06 11:04:21;;;;;;;39.00;21.92;;;;;;;8.62;100.00;97297.13;4967351;28;20034;-61
2020/12/06 11:06:46;;;;;;;49.50;24.08;;;;;;;8.95;100.00;97339.13;4968567;28;20101;-60
2020/12/06 11:09:12;;;;;;;46.92;22.63;;;;;;;8.14;100.00;97197.97;4968310;28;20582;-60
2020/12/06 11:11:37;;;;;;;50.28;23.00;;;;;;;9.04;100.00;97337.00;4968648;28;20031;-60
2020/12/06 11:14:03;;;;;;;44.75;22.67;;;;;;;8.22;100.00;97202.53;4968965;28;20375;-61
2020/12/06 11:16:28;;;;;;;39.88;20.00;;;;;;;8.52;100.00;97289.38;4966835;28;20523;-59